createdAt,value
2023-09-24T00:01:07.353Z,84.85
2023-09-24T00:03:35.208Z,84.80
2023-09-24T00:06:10.766Z,84.26
2023-09-24T00:08:38.789Z,85.21
2023-09-24T00:11:06.828Z,85.37
2023-09-24T00:13:35.933Z,85.59
2023-09-24T00:16:07.231Z,85.50
2023-09-24T00:18:35.664Z,85.65
2023-09-24T00:21:03.897Z,84.82
2023-09-24T00:23:33.091Z,85.21
2023-09-24T00:26:01.764Z,86.54
2023-09-24T00:28:29.886Z,87.70
2023-09-24T00:30:59.472Z,86.76
2023-09-24T00:33:29.048Z,86.35
2023-09-24T00:36:00.492Z,86.48
2023-09-24T00:38:28.445Z,86.71
2023-09-24T00:40:57.486Z,85.94
2023-09-24T00:43:29.754Z,87.45
2023-09-24T00:45:59.125Z,86.44
2023-09-24T00:48:30.221Z,85.90
2023-09-24T00:50:59.403Z,85.85
2023-09-24T00:53:28.634Z,89.87
2023-09-24T00:55:58.499Z,88.55
2023-09-24T00:58:28.338Z,86.71
2023-09-24T01:00:57.185Z,88.03
2023-09-24T01:03:25.505Z,87.10
2023-09-24T01:05:54.170Z,87.71
2023-09-24T01:08:23.459Z,88.52
2023-09-24T01:10:51.996Z,87.85
2023-09-24T01:13:21.538Z,87.88
2023-09-24T01:15:50.635Z,87.88
2023-09-24T01:18:19.067Z,87.30
2023-09-24T01:20:46.935Z,87.82
2023-09-24T01:23:16.967Z,87.86
2023-09-24T01:25:46.212Z,86.86
2023-09-24T01:28:15.262Z,87.49
2023-09-24T01:30:45.089Z,88.68
2023-09-24T01:33:12.999Z,87.91
2023-09-24T01:35:40.821Z,88.33
2023-09-24T01:38:09.093Z,88.22
2023-09-24T01:40:39.022Z,86.78
2023-09-24T01:43:08.830Z,87.16
2023-09-24T01:45:39.854Z,87.07
2023-09-24T01:48:07.970Z,87.70
2023-09-24T01:50:36.529Z,86.32
2023-09-24T01:53:04.291Z,84.83
2023-09-24T01:55:32.424Z,87.44
2023-09-24T01:58:01.867Z,87.02
2023-09-24T02:00:29.569Z,85.51
2023-09-24T02:03:00.679Z,86.20
2023-09-24T02:05:33.555Z,86.24
2023-09-24T02:08:01.409Z,85.01
2023-09-24T02:10:29.098Z,85.29
2023-09-24T02:12:57.111Z,85.28
2023-09-24T02:15:26.318Z,86.26
2023-09-24T02:17:54.404Z,87.42
2023-09-24T02:20:25.233Z,87.67
2023-09-24T02:22:57.812Z,87.68
2023-09-24T02:25:26.087Z,88.05
2023-09-24T02:27:53.819Z,88.07
2023-09-24T02:30:22.723Z,87.91
2023-09-24T02:32:52.128Z,88.01
2023-09-24T02:35:19.924Z,87.06
2023-09-24T02:37:49.648Z,85.98
2023-09-24T02:40:22.627Z,86.70
2023-09-24T02:42:52.683Z,86.58
2023-09-24T02:45:20.912Z,87.09
2023-09-24T02:47:50.781Z,86.50
2023-09-24T02:50:24.068Z,86.57
2023-09-24T02:52:53.394Z,85.90
2023-09-24T02:55:21.583Z,87.56
2023-09-24T02:57:51.530Z,87.11
2023-09-24T03:00:22.303Z,87.28
2023-09-24T03:02:51.018Z,87.59
2023-09-24T03:05:25.496Z,88.38
2023-09-24T03:07:56.901Z,88.37
2023-09-24T03:10:26.030Z,87.24
2023-09-24T03:12:53.818Z,87.58
2023-09-24T03:15:22.129Z,86.48
2023-09-24T03:17:49.894Z,85.93
2023-09-24T03:20:19.176Z,86.23
2023-09-24T03:22:50.334Z,87.89
2023-09-24T03:25:19.037Z,87.45
2023-09-24T03:27:47.033Z,87.97
2023-09-24T03:30:18.395Z,87.63
2023-09-24T03:32:46.669Z,86.49
2023-09-24T03:35:15.299Z,87.79
2023-09-24T03:37:45.062Z,87.05
2023-09-24T03:40:16.224Z,86.23
2023-09-24T03:42:44.349Z,85.94
2023-09-24T03:45:15.117Z,87.20
2023-09-24T03:47:43.398Z,87.02
2023-09-24T03:50:14.591Z,88.43
2023-09-24T03:52:42.501Z,87.77
2023-09-24T03:55:10.884Z,87.93
2023-09-24T03:57:40.443Z,87.95
2023-09-24T04:00:12.284Z,87.53
2023-09-24T04:02:41.520Z,88.43
2023-09-24T04:05:15.110Z,88.05
2023-09-24T04:07:43.339Z,87.88
2023-09-24T04:10:15.246Z,88.07
2023-09-24T04:12:47.464Z,88.01
2023-09-24T04:15:17.037Z,87.14
2023-09-24T04:17:44.782Z,88.89
2023-09-24T04:20:16.541Z,86.56
2023-09-24T04:22:45.972Z,86.75
2023-09-24T04:25:15.753Z,87.40
2023-09-24T04:27:45.359Z,88.64
2023-09-24T04:30:16.639Z,87.20
2023-09-24T04:32:44.754Z,88.31
2023-09-24T04:35:12.529Z,87.67
2023-09-24T04:37:40.533Z,89.33
2023-09-24T04:40:10.641Z,89.88
2023-09-24T04:42:38.530Z,88.68
2023-09-24T04:45:09.145Z,89.95
2023-09-24T04:47:36.982Z,89.59
2023-09-24T04:50:05.125Z,90.87
2023-09-24T04:52:33.036Z,92.81
2023-09-24T04:55:00.881Z,91.83
2023-09-24T04:57:28.525Z,91.76
2023-09-24T04:59:56.227Z,91.21
2023-09-24T05:02:25.366Z,90.37
2023-09-24T05:04:53.769Z,91.62
2023-09-24T05:07:20.813Z,91.32
2023-09-24T05:09:48.674Z,90.35
2023-09-24T05:12:16.337Z,90.97
2023-09-24T05:14:44.233Z,91.85
2023-09-24T05:17:12.006Z,92.61
2023-09-24T05:19:41.115Z,92.46
2023-09-24T05:22:09.871Z,90.16
2023-09-24T05:24:37.832Z,90.36
2023-09-24T05:27:05.644Z,90.65
2023-09-24T05:29:33.587Z,89.85
2023-09-24T05:32:03.308Z,90.41
2023-09-24T05:34:31.356Z,88.37
2023-09-24T05:37:00.623Z,88.25
2023-09-24T05:39:28.447Z,89.01
2023-09-24T05:41:56.834Z,87.64
2023-09-24T05:44:26.184Z,88.43
2023-09-24T05:46:53.876Z,86.81
2023-09-24T05:49:21.555Z,86.14
2023-09-24T05:51:49.227Z,86.86
2023-09-24T05:54:18.379Z,86.92
2023-09-24T05:56:46.087Z,87.39
2023-09-24T05:59:14.519Z,85.19
2023-09-24T06:01:43.309Z,82.08
2023-09-24T06:04:11.278Z,76.00
2023-09-24T06:06:39.188Z,74.62
2023-09-24T06:09:10.287Z,68.21
2023-09-24T06:11:40.762Z,63.17
2023-09-24T06:14:10.837Z,62.55
2023-09-24T06:16:40.864Z,60.12
2023-09-24T06:19:10.793Z,59.03
2023-09-24T06:21:38.982Z,58.90
2023-09-24T06:24:07.714Z,58.88
2023-09-24T06:26:36.360Z,52.25
2023-09-24T06:29:11.621Z,49.46
2023-09-24T06:31:39.979Z,50.85
2023-09-24T06:34:08.188Z,51.26
2023-09-24T06:36:36.069Z,52.26
2023-09-24T06:39:04.064Z,51.27
2023-09-24T06:41:31.868Z,47.73
2023-09-24T06:43:59.571Z,47.46
2023-09-24T06:46:28.618Z,48.02
2023-09-24T06:48:56.446Z,48.30
2023-09-24T06:51:24.292Z,48.42
2023-09-24T06:53:53.354Z,56.37
2023-09-24T06:56:21.248Z,57.08
2023-09-24T06:58:49.394Z,60.39
2023-09-24T07:01:17.154Z,69.50
2023-09-24T07:03:48.924Z,68.67
2023-09-24T07:06:17.493Z,69.30
2023-09-24T07:08:45.741Z,70.10
2023-09-24T07:11:32.553Z,70.90
2023-09-24T07:14:00.644Z,71.09
2023-09-24T07:16:29.493Z,73.88
2023-09-24T07:18:59.181Z,75.31
2023-09-24T07:21:34.279Z,74.71
2023-09-24T07:24:03.937Z,73.50
2023-09-24T07:26:32.156Z,74.20
2023-09-24T07:29:01.259Z,75.42
2023-09-24T07:31:31.145Z,75.93
2023-09-24T07:34:03.444Z,76.05
2023-09-24T07:36:38.161Z,75.88
2023-09-24T07:39:13.045Z,75.52
2023-09-24T07:41:41.017Z,74.27
2023-09-24T07:44:08.796Z,75.42
2023-09-24T07:46:36.676Z,77.23
2023-09-24T07:49:07.559Z,73.57
2023-09-24T07:51:35.558Z,63.06
2023-09-24T07:54:03.346Z,58.22
2023-09-24T07:56:31.566Z,52.79
2023-09-24T07:58:59.942Z,49.35
2023-09-24T08:01:28.318Z,48.59
2023-09-24T08:03:56.301Z,45.68
2023-09-24T08:06:25.711Z,46.36
2023-09-24T08:09:02.663Z,46.91
2023-09-24T08:11:41.182Z,43.30
2023-09-24T08:14:08.925Z,42.13
2023-09-24T08:16:36.931Z,41.38
2023-09-24T08:19:04.658Z,39.76
2023-09-24T08:21:33.795Z,38.83
2023-09-24T08:24:01.579Z,39.58
2023-09-24T08:26:29.360Z,43.36
2023-09-24T08:28:57.062Z,46.68
2023-09-24T08:31:27.017Z,47.89
2023-09-24T08:33:55.021Z,50.84
2023-09-24T08:36:25.211Z,45.60
2023-09-24T08:38:54.554Z,43.57
2023-09-24T08:41:22.288Z,43.89
2023-09-24T08:43:51.103Z,42.75
2023-09-24T08:46:20.548Z,42.92
2023-09-24T08:48:49.186Z,43.90
2023-09-24T08:51:19.226Z,43.09
2023-09-24T08:53:47.199Z,43.39
2023-09-24T08:56:17.833Z,42.53
2023-09-24T08:58:45.761Z,44.47
2023-09-24T09:01:13.714Z,47.71
2023-09-24T09:03:42.512Z,49.88
2023-09-24T09:06:10.683Z,52.24
2023-09-24T09:08:52.078Z,56.79
2023-09-24T09:11:22.244Z,58.35
2023-09-24T09:13:51.099Z,61.49
2023-09-24T09:16:21.959Z,64.31
2023-09-24T09:19:01.912Z,63.86
2023-09-24T09:21:30.652Z,65.95
2023-09-24T09:23:58.357Z,65.42
2023-09-24T09:26:35.363Z,67.23
2023-09-24T09:29:06.550Z,67.93
2023-09-24T09:34:16.854Z,71.15
2023-09-24T09:36:45.037Z,77.38
2023-09-24T09:39:12.979Z,75.57
2023-09-24T09:41:43.938Z,72.49
2023-09-24T09:44:15.675Z,70.66
2023-09-24T09:46:46.955Z,71.30
2023-09-24T09:49:18.951Z,70.77
2023-09-24T09:51:48.215Z,74.15
2023-09-24T09:54:17.243Z,78.76
2023-09-24T09:56:46.445Z,76.52
2023-09-24T09:59:16.437Z,76.67
2023-09-24T10:01:44.355Z,76.45
2023-09-24T10:04:12.388Z,73.66
2023-09-24T10:06:41.501Z,75.95
2023-09-24T10:09:35.873Z,78.31
2023-09-24T10:12:08.576Z,77.03
2023-09-24T10:14:38.187Z,80.53
2023-09-24T10:17:25.717Z,82.01
2023-09-24T10:19:58.259Z,79.78
2023-09-24T10:22:28.908Z,76.53
2023-09-24T10:24:57.051Z,79.59
2023-09-24T10:27:31.736Z,78.80
2023-09-24T10:30:12.183Z,80.57
2023-09-24T10:32:53.127Z,79.36
2023-09-24T10:35:21.777Z,80.28
2023-09-24T10:38:02.839Z,79.98
2023-09-24T10:40:31.074Z,77.05
2023-09-24T10:43:23.010Z,78.19
2023-09-24T10:45:51.075Z,76.45
2023-09-24T10:48:23.191Z,77.72
2023-09-24T10:50:57.393Z,77.38
2023-09-24T10:53:25.097Z,75.70
2023-09-24T10:56:05.558Z,74.21
2023-09-24T10:58:40.212Z,73.90
2023-09-24T11:01:07.973Z,76.49
2023-09-24T11:03:37.115Z,78.58
2023-09-24T11:06:05.590Z,78.38
2023-09-24T11:08:33.305Z,77.92
2023-09-24T11:11:01.038Z,79.93
2023-09-24T11:13:28.732Z,80.74
2023-09-24T11:15:58.102Z,79.68
2023-09-24T11:18:27.441Z,80.77
2023-09-24T11:20:55.430Z,79.07
2023-09-24T11:23:23.427Z,78.85
2023-09-24T11:25:52.953Z,80.18
2023-09-24T11:28:30.487Z,78.79
2023-09-24T11:30:59.627Z,79.11
2023-09-24T11:33:27.403Z,78.36
2023-09-24T11:35:57.362Z,78.89
2023-09-24T11:38:29.697Z,78.04
2023-09-24T11:41:07.792Z,76.32
2023-09-24T11:43:36.465Z,76.59
2023-09-24T11:46:16.569Z,75.96
2023-09-24T11:48:45.725Z,73.29
2023-09-24T11:51:13.672Z,73.38
2023-09-24T11:53:42.172Z,73.04
2023-09-24T11:56:09.883Z,70.77
2023-09-24T11:58:39.009Z,70.89
2023-09-24T12:01:10.662Z,71.29
2023-09-24T12:03:38.891Z,70.46
2023-09-24T12:06:07.635Z,72.07
2023-09-24T12:08:35.527Z,72.17
2023-09-24T12:11:03.320Z,72.71
2023-09-24T12:13:32.646Z,72.13
2023-09-24T12:16:00.405Z,73.01
2023-09-24T12:18:29.641Z,69.77
2023-09-24T12:20:58.374Z,69.94
2023-09-24T12:23:26.899Z,67.81
2023-09-24T12:25:55.001Z,70.31
2023-09-24T12:28:22.686Z,69.07
2023-09-24T12:30:50.426Z,67.93
2023-09-24T12:33:18.243Z,68.00
2023-09-24T12:35:47.351Z,69.11
2023-09-24T12:38:15.136Z,69.41
2023-09-24T12:40:43.020Z,68.92
2023-09-24T12:43:10.812Z,68.53
2023-09-24T12:45:38.543Z,67.57
2023-09-24T12:48:09.307Z,66.29
2023-09-24T12:50:37.365Z,65.94
2023-09-24T12:53:06.652Z,68.19
2023-09-24T12:55:34.356Z,68.07
2023-09-24T12:58:02.038Z,69.96
2023-09-24T13:00:29.887Z,68.17
2023-09-24T13:02:57.694Z,66.51
2023-09-24T13:05:26.119Z,64.56
2023-09-24T13:07:54.112Z,64.44
2023-09-24T13:10:23.974Z,65.09
2023-09-24T13:12:51.635Z,65.42
2023-09-24T13:15:19.452Z,66.36
2023-09-24T13:17:47.182Z,67.79
2023-09-24T13:20:15.592Z,68.23
2023-09-24T13:22:43.382Z,66.34
2023-09-24T13:25:13.744Z,65.86
2023-09-24T13:27:43.944Z,65.96
2023-09-24T13:30:12.204Z,63.67
2023-09-24T13:32:40.865Z,63.81
2023-09-24T13:35:09.931Z,65.07
2023-09-24T13:37:38.935Z,63.93
2023-09-24T13:40:13.958Z,63.45
2023-09-24T13:42:48.989Z,63.97
2023-09-24T13:45:16.980Z,64.39
2023-09-24T13:47:44.835Z,63.05
2023-09-24T13:50:12.700Z,63.09
2023-09-24T13:52:40.470Z,63.12
2023-09-24T13:55:09.567Z,62.31
2023-09-24T13:57:37.990Z,62.63
2023-09-24T14:00:09.377Z,63.05
2023-09-24T14:02:37.167Z,63.75
2023-09-24T14:05:06.059Z,63.34
2023-09-24T14:07:33.740Z,63.76
2023-09-24T14:10:19.082Z,62.98
2023-09-24T14:12:46.927Z,63.53
2023-09-24T14:15:16.394Z,62.65
2023-09-24T14:17:48.215Z,64.18
2023-09-24T14:20:20.645Z,64.38
2023-09-24T14:22:48.586Z,63.30
2023-09-24T14:25:16.429Z,63.11
2023-09-24T14:27:44.812Z,63.23
2023-09-24T14:30:13.780Z,62.67
2023-09-24T14:32:42.879Z,61.45
2023-09-24T14:35:10.842Z,61.18
2023-09-24T14:37:38.641Z,61.40
2023-09-24T14:40:07.613Z,61.40
2023-09-24T14:42:35.502Z,62.30
2023-09-24T14:45:03.256Z,61.82
2023-09-24T14:47:31.855Z,60.50
2023-09-24T14:50:01.526Z,60.78
2023-09-24T14:52:30.742Z,63.89
2023-09-24T14:54:59.606Z,62.99
2023-09-24T14:57:27.315Z,63.01
2023-09-24T14:59:55.063Z,62.10
2023-09-24T15:02:22.833Z,61.63
2023-09-24T15:04:52.035Z,61.50
2023-09-24T15:07:21.124Z,62.19
2023-09-24T15:09:48.744Z,63.20
2023-09-24T15:12:16.639Z,62.29
2023-09-24T15:14:44.614Z,62.64
2023-09-24T15:17:12.388Z,64.68
2023-09-24T15:19:40.066Z,63.03
2023-09-24T15:22:07.764Z,64.20
2023-09-24T15:24:36.784Z,64.40
2023-09-24T15:27:04.665Z,64.26
2023-09-24T15:29:32.581Z,64.44
2023-09-24T15:32:00.286Z,64.27
2023-09-24T15:34:30.677Z,62.94
2023-09-24T15:36:58.413Z,62.55
2023-09-24T15:39:26.154Z,63.54
2023-09-24T15:41:55.258Z,62.94
2023-09-24T15:44:22.950Z,62.11
2023-09-24T15:46:50.657Z,62.89
2023-09-24T15:49:18.404Z,63.34
2023-09-24T15:51:46.108Z,64.13
2023-09-24T15:54:13.948Z,63.83
2023-09-24T15:56:41.657Z,64.57
2023-09-24T15:59:10.673Z,64.41
2023-09-24T16:01:38.709Z,63.75
2023-09-24T16:04:06.511Z,64.81
2023-09-24T16:06:34.239Z,64.85
2023-09-24T16:09:01.995Z,64.15
2023-09-24T16:11:29.702Z,66.16
2023-09-24T16:13:57.374Z,64.97
2023-09-24T16:16:27.164Z,65.23
2023-09-24T16:18:55.105Z,66.73
2023-09-24T16:21:22.878Z,66.59
2023-09-24T16:23:51.161Z,66.89
2023-09-24T16:26:20.293Z,67.40
2023-09-24T16:28:47.958Z,67.81
2023-09-24T16:31:15.708Z,68.43
2023-09-24T16:33:44.790Z,66.93
2023-09-24T16:36:14.112Z,66.95
2023-09-24T16:38:41.918Z,66.82
2023-09-24T16:41:10.115Z,66.73
2023-09-24T16:43:37.790Z,67.46
2023-09-24T16:46:05.487Z,67.78
2023-09-24T16:48:33.393Z,68.27
2023-09-24T16:51:04.449Z,69.12
2023-09-24T16:53:32.637Z,69.53
2023-09-24T16:56:00.423Z,69.28
2023-09-24T16:58:28.091Z,69.65
2023-09-24T17:00:55.778Z,70.00
2023-09-24T17:03:23.675Z,70.56
2023-09-24T17:05:51.503Z,71.78
2023-09-24T17:08:20.537Z,73.42
2023-09-24T17:10:49.502Z,73.29
2023-09-24T17:13:17.254Z,74.43
2023-09-24T17:15:47.149Z,76.19
2023-09-24T17:18:15.106Z,77.30
2023-09-24T17:20:48.344Z,76.58
2023-09-24T17:23:16.407Z,76.23
2023-09-24T17:25:45.480Z,77.31
2023-09-24T17:28:13.207Z,76.68
2023-09-24T17:30:40.903Z,77.04
2023-09-24T17:33:08.650Z,77.28
2023-09-24T17:35:36.704Z,79.87
2023-09-24T17:38:04.687Z,78.95
2023-09-24T17:40:32.397Z,79.57
2023-09-24T17:43:01.477Z,77.03
2023-09-24T17:45:30.569Z,76.37
2023-09-24T17:47:58.416Z,78.36
2023-09-24T17:50:26.146Z,79.08
2023-09-24T17:52:53.810Z,80.53
2023-09-24T17:55:21.506Z,79.05
2023-09-24T17:57:49.699Z,78.01
2023-09-24T18:00:19.491Z,76.40
2023-09-24T18:02:47.286Z,76.17
2023-09-24T18:05:16.310Z,77.88
2023-09-24T18:07:43.969Z,76.94
2023-09-24T18:10:11.906Z,77.21
2023-09-24T18:12:39.576Z,77.13
2023-09-24T18:15:08.879Z,78.22
2023-09-24T18:17:37.951Z,79.40
2023-09-24T18:20:06.559Z,79.07
2023-09-24T18:22:34.200Z,78.51
2023-09-24T18:25:01.876Z,79.08
2023-09-24T18:27:34.227Z,78.52
2023-09-24T18:30:02.339Z,78.81
2023-09-24T18:32:30.171Z,78.67
2023-09-24T18:34:59.267Z,78.77
2023-09-24T18:37:27.281Z,79.34
2023-09-24T18:39:55.622Z,78.17
2023-09-24T18:42:24.025Z,77.83
2023-09-24T18:44:53.037Z,77.61
2023-09-24T18:47:21.943Z,77.14
2023-09-24T18:49:49.606Z,76.08
2023-09-24T18:52:18.618Z,79.21
2023-09-24T18:54:46.324Z,77.67
2023-09-24T18:57:14.862Z,75.96
2023-09-24T18:59:42.614Z,77.49
2023-09-24T19:02:10.295Z,77.21
2023-09-24T19:04:38.210Z,76.23
2023-09-24T19:07:07.663Z,76.87
2023-09-24T19:09:36.814Z,76.44
2023-09-24T19:12:04.765Z,77.61
2023-09-24T19:14:32.544Z,78.77
2023-09-24T19:17:00.217Z,79.26
2023-09-24T19:19:27.943Z,79.56
2023-09-24T19:21:55.858Z,80.64
2023-09-24T19:24:23.781Z,81.65
2023-09-24T19:26:55.269Z,81.49
2023-09-24T19:29:23.384Z,81.41
2023-09-24T19:31:52.313Z,80.68
2023-09-24T19:34:20.111Z,79.70
2023-09-24T19:36:47.778Z,78.87
2023-09-24T19:39:15.623Z,79.03
2023-09-24T19:41:43.559Z,78.32
2023-09-24T19:44:12.693Z,78.07
2023-09-24T19:46:40.743Z,77.34
2023-09-24T19:49:08.736Z,77.42
2023-09-24T19:51:36.545Z,78.24
2023-09-24T19:54:04.283Z,77.85
2023-09-24T19:56:32.007Z,78.19
2023-09-24T19:59:01.161Z,77.48
2023-09-24T20:01:30.277Z,77.07
2023-09-24T20:04:00.083Z,77.61
2023-09-24T20:06:28.056Z,77.43
2023-09-24T20:08:59.641Z,77.59
2023-09-24T20:11:27.504Z,78.07
2023-09-24T20:13:57.535Z,77.15
2023-09-24T20:16:25.284Z,77.73
2023-09-24T20:18:54.447Z,77.63
2023-09-24T20:21:22.199Z,76.96
2023-09-24T20:23:49.934Z,76.86
2023-09-24T20:26:17.784Z,77.22
2023-09-24T20:28:53.304Z,77.86
2023-09-24T20:31:22.273Z,78.17
2023-09-24T20:34:00.505Z,78.48
2023-09-24T20:36:31.956Z,78.14
2023-09-24T20:39:04.471Z,77.90
2023-09-24T20:41:33.234Z,78.20
2023-09-24T20:44:00.937Z,77.40
2023-09-24T20:46:34.130Z,77.93
2023-09-24T20:49:02.137Z,77.17
2023-09-24T20:51:31.240Z,77.00
2023-09-24T20:53:59.145Z,76.20
2023-09-24T20:56:27.025Z,76.08
2023-09-24T20:58:58.054Z,76.69
2023-09-24T21:01:26.396Z,75.48
2023-09-24T21:03:54.187Z,75.97
2023-09-24T21:06:21.977Z,75.96
2023-09-24T21:08:51.300Z,76.68
2023-09-24T21:11:19.187Z,75.48
2023-09-24T21:13:47.089Z,75.42
2023-09-24T21:16:14.881Z,75.04
2023-09-24T21:18:42.666Z,75.28
2023-09-24T21:21:10.613Z,75.89
2023-09-24T21:23:39.060Z,75.51
2023-09-24T21:26:08.496Z,75.15
2023-09-24T21:28:36.312Z,75.18
2023-09-24T21:31:05.404Z,75.47
2023-09-24T21:33:33.563Z,76.29
2023-09-24T21:36:01.729Z,76.59
2023-09-24T21:38:29.420Z,77.27
2023-09-24T21:40:58.274Z,76.30
2023-09-24T21:43:31.502Z,76.14
2023-09-24T21:46:00.589Z,76.12
2023-09-24T21:48:28.404Z,75.71
2023-09-24T21:50:56.656Z,77.31
2023-09-24T21:53:24.437Z,77.19
2023-09-24T21:55:52.440Z,77.16
2023-09-24T21:58:20.562Z,77.78
2023-09-24T22:00:49.585Z,76.67
2023-09-24T22:03:18.863Z,77.64
2023-09-24T22:05:47.115Z,78.17
2023-09-24T22:08:14.909Z,77.78
2023-09-24T22:10:42.602Z,77.19
2023-09-24T22:13:10.285Z,77.62
2023-09-24T22:15:38.014Z,78.71
2023-09-24T22:18:07.506Z,78.21
2023-09-24T22:20:35.257Z,79.36
2023-09-24T22:23:03.092Z,77.89
2023-09-24T22:25:31.834Z,78.48
2023-09-24T22:27:59.607Z,79.29
2023-09-24T22:30:27.606Z,79.35
2023-09-24T22:32:55.451Z,79.79
2023-09-24T22:35:24.918Z,79.16
2023-09-24T22:37:52.612Z,79.99
2023-09-24T22:40:20.402Z,79.27
2023-09-24T22:42:48.069Z,79.15
2023-09-24T22:45:18.760Z,79.10
2023-09-24T22:47:46.961Z,79.02
2023-09-24T22:50:15.634Z,77.75
2023-09-24T22:52:47.273Z,78.48
2023-09-24T22:55:17.219Z,78.39
2023-09-24T22:57:45.680Z,77.67
2023-09-24T23:00:17.390Z,77.89
2023-09-24T23:02:45.355Z,78.94
2023-09-24T23:05:14.498Z,77.73
2023-09-24T23:07:42.685Z,77.30
2023-09-24T23:10:12.572Z,76.54
2023-09-24T23:12:40.473Z,76.38
2023-09-24T23:15:09.328Z,76.72
2023-09-24T23:17:37.029Z,76.37
2023-09-24T23:20:05.559Z,76.17
2023-09-24T23:22:33.324Z,75.36
2023-09-24T23:25:00.993Z,75.23
2023-09-24T23:27:31.158Z,75.23
2023-09-24T23:29:59.194Z,75.88
2023-09-24T23:32:29.857Z,75.23
2023-09-24T23:34:57.634Z,75.09
2023-09-24T23:37:25.290Z,75.46
2023-09-24T23:39:53.151Z,74.93
2023-09-24T23:42:21.437Z,76.14
2023-09-24T23:44:50.500Z,76.35
2023-09-24T23:47:18.452Z,75.91
2023-09-24T23:49:46.291Z,76.51
2023-09-24T23:52:14.042Z,76.27
2023-09-24T23:54:41.788Z,76.24
2023-09-24T23:57:09.524Z,75.91
2023-09-24T23:59:37.225Z,76.12
